Time;durP1;ratioP1;P1;durP2;ratioP2;P2;SDS_P1;SDS_P2;PMS_P1;PMS_P2;Temp;Humidity;BMP_temperature;BMP_pressure;BME280_temperature;BME280_humidity;BME280_pressure;Samples;Min_cycle;Max_cycle;Signal;HPM_P1;HPM_P2
2023/10/15 00:03:39;;;;;;;;;;;16.00;87.00;;;;;;10541185;28;20052;-39
2023/10/15 00:08:41;;;;;;;6.32;1.42;;;15.50;94.40;;;;;;10548483;28;19920;-38
2023/10/15 00:13:43;;;;;;;1.90;0.75;;;14.70;81.80;;;;;;10541167;28;20066;-35
2023/10/15 00:18:46;;;;;;;3.83;0.82;;;14.90;99.90;;;;;;10541598;28;20073;-35
2023/10/15 00:23:48;;;;;;;1.23;0.52;;;14.00;88.80;;;;;;10545291;28;20048;-35
2023/10/15 00:28:50;;;;;;;4.38;0.60;;;15.50;93.20;;;;;;10545414;28;20055;-36
2023/10/15 00:33:53;;;;;;;7.00;1.08;;;15.70;84.90;;;;;;10548499;28;20469;-32
2023/10/15 00:38:55;;;;;;;4.32;0.80;;;15.90;96.00;;;;;;10556696;28;20079;-37
2023/10/15 00:43:59;;;;;;;4.50;0.65;;;14.70;96.70;;;;;;10546762;28;20096;-35
2023/10/15 00:49:09;;;;;;;4.90;0.98;;;14.90;92.30;;;;;;10547349;28;20467;-33
2023/10/15 00:54:16;;;;;;;2.53;0.98;;;14.10;97.30;;;;;;10558569;28;20484;-35
2023/10/15 00:59:18;;;;;;;2.17;0.55;;;16.40;94.50;;;;;;10540371;28;20048;-41
2023/10/15 01:04:24;;;;;;;7.18;0.90;;;14.30;99.30;;;;;;10553201;28;20104;-40
2023/10/15 01:09:28;;;;;;;5.85;0.70;;;15.40;94.30;;;;;;10542138;28;20132;-34
2023/10/15 01:14:32;;;;;;;3.28;0.50;;;15.30;80.00;;;;;;10521500;28;20142;-34
2023/10/15 01:19:36;;;;;;;7.68;1.08;;;13.90;92.60;;;;;;10548410;28;20134;-37
2023/10/15 01:24:41;;;;;;;5.45;0.85;;;15.40;97.00;;;;;;10551456;28;20048;-35
2023/10/15 01:29:47;;;;;;;5.25;1.05;;;16.20;89.80;;;;;;10546928;28;20048;-33
2023/10/15 01:34:52;;;;;;;3.88;1.00;;;16.90;85.90;;;;;;10533902;28;20043;-34
2023/10/15 01:40:00;;;;;;;2.95;0.90;;;16.90;87.60;;;;;;10548637;28;20056;-34
2023/10/15 01:45:16;;;;;;;4.10;1.05;;;16.90;94.20;;;;;;10547531;28;20040;-33
2023/10/15 01:50:23;;;;;;;1.40;0.77;;;17.20;91.50;;;;;;10536297;28;20089;-34
2023/10/15 01:55:28;;;;;;;4.15;1.02;;;16.70;94.70;;;;;;10541575;28;20051;-40
2023/10/15 02:00:43;;;;;;;8.50;1.38;;;15.80;90.90;;;;;;10540028;28;20074;-35
2023/10/15 02:05:45;;;;;;;11.20;0.98;;;13.50;91.60;;;;;;10551175;28;20059;-35
2023/10/15 02:10:47;;;;;;;4.78;0.82;;;15.10;95.10;;;;;;10542175;28;20082;-34
2023/10/15 02:15:50;;;;;;;10.90;0.93;;;16.00;94.10;;;;;;10533710;28;20531;-38
2023/10/15 02:21:01;;;;;;;4.40;0.70;;;14.10;89.80;;;;;;10533014;28;20047;-33
2023/10/15 02:26:03;;;;;;;3.75;0.57;;;16.70;92.60;;;;;;10537498;28;20392;-32
2023/10/15 02:31:14;;;;;;;2.37;0.60;;;14.40;99.30;;;;;;10528822;28;20167;-34
2023/10/15 02:36:17;;;;;;;2.33;0.65;;;14.50;99.90;;;;;;10526759;28;20093;-35
2023/10/15 02:41:19;;;;;;;4.97;0.60;;;14.60;98.40;;;;;;10532295;28;20054;-35
2023/10/15 02:46:24;;;;;;;5.57;0.55;;;18.10;90.50;;;;;;10541141;28;20550;-35
2023/10/15 02:51:26;;;;;;;1.65;0.43;;;18.80;83.60;;;;;;10538692;28;20473;-33
2023/10/15 02:56:28;;;;;;;2.20;0.55;;;20.20;76.50;;;;;;10538999;28;20508;-33
2023/10/15 03:15:31;;;;;;;8.07;1.13;;;14.70;97.80;;;;;;10517154;27;20159;-34
2023/10/15 03:20:48;;;;;;;3.50;0.65;;;15.40;93.30;;;;;;10521972;28;20322;-33
2023/10/15 03:25:57;;;;;;;3.58;0.93;;;15.30;85.70;;;;;;10530935;28;20079;-41
2023/10/15 03:31:00;;;;;;;8.35;1.08;;;13.60;94.70;;;;;;10528850;28;20060;-33
2023/10/15 03:36:03;;;;;;;1.63;0.60;;;14.60;97.90;;;;;;10531080;28;20040;-33
2023/10/15 03:41:13;;;;;;;;;;;16.80;94.40;;;;;;10530066;28;20044;-38
2023/10/15 03:46:19;;;;;;;3.40;1.13;;;16.70;93.00;;;;;;10524054;28;19970;-34
2023/10/15 03:51:21;;;;;;;5.70;1.00;;;18.00;83.00;;;;;;10522042;28;20531;-33
2023/10/15 03:56:27;;;;;;;8.07;1.37;;;15.70;95.10;;;;;;10524001;28;20465;-34
2023/10/15 04:01:30;;;;;;;5.07;1.00;;;12.70;99.20;;;;;;10524316;28;20040;-35
2023/10/15 04:06:34;;;;;;;4.43;1.05;;;14.10;94.70;;;;;;10534626;28;20088;-32
2023/10/15 04:11:42;;;;;;;4.95;0.50;;;14.00;96.50;;;;;;10544942;28;20151;-35
2023/10/15 04:16:46;;;;;;;4.10;0.75;;;17.00;94.50;;;;;;10563937;28;20043;-36
2023/10/15 04:21:48;;;;;;;6.00;0.80;;;17.50;88.20;;;;;;10569405;28;20048;-42
2023/10/15 04:26:50;;;;;;;6.05;1.27;;;15.10;97.20;;;;;;10544532;28;20051;-33
2023/10/15 04:32:00;;;;;;;7.10;0.90;;;13.70;94.80;;;;;;10546406;28;20075;-33
2023/10/15 04:37:07;;;;;;;4.35;0.77;;;16.30;93.90;;;;;;10536537;28;20413;-33
2023/10/15 04:42:12;;;;;;;3.47;0.88;;;17.00;93.20;;;;;;10546147;28;20512;-39
2023/10/15 04:47:20;;;;;;;12.25;1.20;;;15.70;88.90;;;;;;10538738;28;20067;-33
2023/10/15 04:52:22;;;;;;;3.42;0.70;;;14.70;96.10;;;;;;10536286;28;20126;-35
2023/10/15 04:57:25;;;;;;;5.97;1.20;;;16.40;87.10;;;;;;10533662;28;20139;-36
2023/10/15 05:02:29;;;;;;;1.85;0.60;;;13.10;92.90;;;;;;10536464;28;20052;-33
2023/10/15 05:07:31;;;;;;;3.15;0.63;;;16.90;95.40;;;;;;10536179;28;20470;-37
2023/10/15 05:12:34;;;;;;;1.67;0.60;;;17.50;92.10;;;;;;10534966;28;20065;-33
2023/10/15 05:17:39;;;;;;;0.95;0.45;;;18.70;71.90;;;;;;10528013;28;20130;-41
2023/10/15 05:22:40;;;;;;;1.50;0.60;;;18.70;87.00;;;;;;10534395;28;20040;-33
2023/10/15 05:27:43;;;;;;;2.08;0.52;;;17.90;87.00;;;;;;10535101;28;20085;-35
2023/10/15 05:32:48;;;;;;;3.45;0.63;;;19.40;81.90;;;;;;10534306;28;20052;-36
2023/10/15 05:37:50;;;;;;;5.85;0.98;;;17.20;92.60;;;;;;10532905;28;20095;-36
2023/10/15 05:42:53;;;;;;;4.43;0.70;;;17.40;81.90;;;;;;10534194;28;20530;-33
2023/10/15 05:47:56;;;;;;;0.82;0.38;;;20.00;75.30;;;;;;10535301;28;21146;-32
2023/10/15 05:52:57;;;;;;;1.63;0.47;;;20.70;74.80;;;;;;10533054;28;20044;-29
2023/10/15 05:57:59;;;;;;;4.43;0.68;;;20.60;74.50;;;;;;10532629;28;20044;-33
2023/10/15 06:03:02;;;;;;;13.20;1.48;;;19.70;73.00;;;;;;10532046;28;20048;-33
2023/10/15 06:08:05;;;;;;;6.38;0.70;;;16.30;69.50;;;;;;10533087;28;20047;-34
2023/10/15 06:13:07;;;;;;;6.25;0.73;;;16.10;94.60;;;;;;10531864;28;20052;-37
2023/10/15 06:18:10;;;;;;;2.75;0.77;;;13.90;93.00;;;;;;10531350;28;20044;-37
2023/10/15 06:23:13;;;;;;;4.85;1.10;;;15.90;97.40;;;;;;10531944;28;20063;-35
2023/10/15 06:28:15;;;;;;;7.85;1.00;;;15.30;92.80;;;;;;10532154;28;20043;-35
2023/10/15 06:33:18;;;;;;;3.70;0.98;;;13.60;99.90;;;;;;10531534;28;20047;-33
2023/10/15 06:38:20;;;;;;;5.68;0.88;;;15.00;99.90;;;;;;10522025;28;20052;-42
2023/10/15 06:43:22;;;;;;;3.88;1.50;;;14.80;91.70;;;;;;10525305;28;20047;-41
2023/10/15 06:48:25;;;;;;;4.78;1.13;;;14.40;96.20;;;;;;10532076;28;20051;-37
2023/10/15 06:53:27;;;;;;;5.03;0.90;;;15.10;98.60;;;;;;10534359;28;20094;-35
2023/10/15 06:58:29;;;;;;;16.42;1.63;;;14.20;82.60;;;;;;10530084;28;20080;-34
2023/10/15 07:03:33;;;;;;;11.65;1.48;;;13.30;96.20;;;;;;10526654;28;20044;-33
2023/10/15 07:08:34;;;;;;;11.10;1.20;;;13.30;99.90;;;;;;10525220;28;20063;-42
2023/10/15 07:13:36;;;;;;;8.95;1.27;;;13.50;91.70;;;;;;10515687;28;20101;-34
2023/10/15 07:18:39;;;;;;;4.13;0.50;;;14.50;97.90;;;;;;10521592;28;20079;-32
2023/10/15 07:23:41;;;;;;;5.78;0.98;;;14.80;99.90;;;;;;10529208;28;20067;-32
2023/10/15 07:28:43;;;;;;;6.85;1.35;;;16.40;94.80;;;;;;10529604;28;20416;-35
2023/10/15 07:33:46;;;;;;;3.97;0.93;;;16.30;93.40;;;;;;10530888;28;20094;-33
2023/10/15 07:38:48;;;;;;;5.07;1.15;;;13.90;95.00;;;;;;10529935;28;20080;-34
2023/10/15 07:43:49;;;;;;;4.57;0.60;;;13.50;89.60;;;;;;10529730;28;20051;-35
2023/10/15 07:48:52;;;;;;;3.20;0.88;;;14.80;98.50;;;;;;10528495;28;20056;-32
2023/10/15 07:53:55;;;;;;;2.55;0.60;;;17.70;90.90;;;;;;10539552;28;20063;-33
2023/10/15 07:58:57;;;;;;;6.93;1.38;;;19.30;81.20;;;;;;10522860;28;20136;-32
2023/10/15 08:04:02;;;;;;;;;;;18.10;70.00;;;;;;10542035;28;20040;-31
2023/10/15 08:09:05;;;;;;;3.25;0.75;;;15.00;99.90;;;;;;10541491;28;19927;-33
2023/10/15 08:14:07;;;;;;;;;;;16.30;93.20;;;;;;10548610;28;20132;-37
2023/10/15 08:19:10;;;;;;;9.27;2.72;;;14.20;99.90;;;;;;10527296;28;19949;-36
2023/10/15 08:24:14;;;;;;;7.65;0.65;;;15.50;91.90;;;;;;10534695;28;20048;-41
2023/10/15 08:29:19;;;;;;;5.43;1.02;;;18.00;84.40;;;;;;10535943;28;20047;-33
2023/10/15 08:34:23;;;;;;;4.22;0.68;;;15.40;86.80;;;;;;10528799;28;20046;-35
2023/10/15 08:39:27;;;;;;;4.03;0.95;;;14.20;95.10;;;;;;10531670;28;20831;-33
2023/10/15 08:44:29;;;;;;;8.15;0.90;;;13.60;99.90;;;;;;10544057;28;20075;-31
2023/10/15 08:49:34;;;;;;;;;;;13.90;99.80;;;;;;10550636;28;20072;-31
2023/10/15 08:54:38;;;;;;;7.63;1.00;;;14.80;99.90;;;;;;10538171;28;20014;-32
2023/10/15 08:59:43;;;;;;;2.00;0.50;;;15.30;96.10;;;;;;10535879;28;20048;-34
2023/10/15 09:04:46;;;;;;;5.50;0.80;;;18.10;83.50;;;;;;10540014;28;20055;-32
2023/10/15 09:09:49;;;;;;;6.88;0.80;;;14.80;96.00;;;;;;10541895;28;20086;-32
2023/10/15 09:14:50;;;;;;;;;;;13.10;97.60;;;;;;10538040;28;20051;-34
2023/10/15 09:19:53;;;;;;;7.47;1.02;;;16.80;94.90;;;;;;10542556;28;19972;-33
2023/10/15 09:24:55;;;;;;;8.82;1.23;;;18.80;82.50;;;;;;10542191;28;20133;-39
2023/10/15 09:30:14;;;;;;;3.10;0.40;;;17.60;88.60;;;;;;10545489;28;20765;-34
2023/10/15 09:35:20;;;;;;;9.75;0.80;;;15.80;92.80;;;;;;10533275;28;20056;-38
2023/10/15 09:40:23;;;;;;;9.10;1.08;;;18.00;88.30;;;;;;10535148;28;20044;-32
2023/10/15 09:45:25;;;;;;;6.30;1.00;;;15.90;93.30;;;;;;10532994;28;20048;-35
2023/10/15 09:50:31;;;;;;;9.70;1.30;;;15.70;96.20;;;;;;10547159;28;20074;-37
2023/10/15 09:55:34;;;;;;;3.95;0.70;;;14.50;93.30;;;;;;10534968;28;20044;-40
2023/10/15 10:00:47;;;;;;;10.70;1.70;;;14.80;95.00;;;;;;10534289;28;20056;-36
2023/10/15 10:05:58;;;;;;;4.05;0.98;;;12.90;97.60;;;;;;10527786;28;20048;-34
2023/10/15 10:11:23;;;;;;;2.22;0.90;;;16.80;96.70;;;;;;10527154;28;20109;-35
2023/10/15 10:16:27;;;;;;;10.60;1.58;;;17.70;86.00;;;;;;10528206;28;20052;-34
2023/10/15 10:21:32;;;;;;;9.02;1.27;;;15.90;72.10;;;;;;10518359;28;20135;-34
2023/10/15 10:26:34;;;;;;;8.50;1.17;;;17.40;90.70;;;;;;10524658;28;20071;-36
2023/10/15 10:31:36;;;;;;;5.77;1.07;;;16.10;91.30;;;;;;10532288;28;20047;-39
2023/10/15 10:36:40;;;;;;;6.20;1.23;;;15.90;96.20;;;;;;10540990;28;21052;-33
2023/10/15 10:41:44;;;;;;;8.88;1.48;;;16.80;93.50;;;;;;10533990;28;20048;-38
2023/10/15 10:46:46;;;;;;;3.05;0.82;;;15.70;78.60;;;;;;10533691;28;20078;-44
2023/10/15 10:52:14;;;;;;;4.97;0.67;;;18.90;86.30;;;;;;10534467;28;20143;-39
2023/10/15 10:57:18;;;;;;;5.90;1.50;;;17.20;95.30;;;;;;10545630;28;20562;-38
2023/10/15 11:02:22;;;;;;;14.13;0.77;;;20.00;79.20;;;;;;10524015;28;20101;-41
2023/10/15 11:07:36;;;;;;;3.30;1.05;;;19.70;80.40;;;;;;10539710;28;20055;-38
2023/10/15 11:12:38;;;;;;;4.22;1.05;;;20.70;75.50;;;;;;10544649;28;20673;-40
2023/10/15 11:17:54;;;;;;;1.83;0.68;;;19.40;77.60;;;;;;10536591;28;20128;-36
2023/10/15 11:22:59;;;;;;;4.80;1.08;;;18.50;82.20;;;;;;10537475;28;20036;-34
2023/10/15 11:28:04;;;;;;;7.90;1.23;;;17.80;86.20;;;;;;10540226;28;20415;-36
2023/10/15 11:33:07;;;;;;;4.60;1.08;;;18.50;82.90;;;;;;10538772;28;20087;-33
2023/10/15 11:38:11;;;;;;;6.40;0.85;;;16.70;82.90;;;;;;10539625;28;20055;-37
2023/10/15 11:43:17;;;;;;;5.68;1.00;;;16.80;94.40;;;;;;10552298;28;20493;-36
2023/10/15 11:48:21;;;;;;;4.28;1.05;;;18.20;89.40;;;;;;10547874;28;20116;-40
2023/10/15 11:53:24;;;;;;;6.55;1.00;;;18.10;89.00;;;;;;10556309;28;20068;-39
2023/10/15 11:58:30;;;;;;;5.13;1.25;;;15.40;93.30;;;;;;10547947;28;20056;-33
2023/10/15 12:03:33;;;;;;;3.55;1.13;;;15.60;98.50;;;;;;10544131;28;20051;-40
2023/10/15 12:08:36;;;;;;;3.63;0.90;;;17.40;92.50;;;;;;10545022;28;20097;-40
2023/10/15 12:13:39;;;;;;;11.77;0.80;;;16.80;93.60;;;;;;10536728;28;20109;-33
2023/10/15 12:18:41;;;;;;;3.75;0.80;;;16.30;93.30;;;;;;10535136;28;20052;-33
2023/10/15 12:23:44;;;;;;;3.10;1.20;;;18.80;88.40;;;;;;10547543;28;20480;-32
2023/10/15 12:28:47;;;;;;;4.22;0.77;;;19.40;80.00;;;;;;10543385;28;20501;-33
2023/10/15 12:33:48;;;;;;;4.50;0.85;;;19.10;61.70;;;;;;10540298;28;20098;-39
2023/10/15 12:38:52;;;;;;;6.70;1.05;;;19.90;79.00;;;;;;10547541;28;20060;-42
2023/10/15 12:43:58;;;;;;;7.78;1.33;;;17.60;73.00;;;;;;10549820;28;20044;-39
2023/10/15 12:49:00;;;;;;;7.03;0.80;;;16.20;91.30;;;;;;10544219;28;20134;-41
2023/10/15 12:54:04;;;;;;;3.40;1.33;;;17.20;73.20;;;;;;10560620;27;20047;-40
2023/10/15 12:59:06;;;;;;;8.35;1.08;;;19.30;81.20;;;;;;10545313;28;20058;-40
2023/10/15 13:04:08;;;;;;;1.17;0.50;;;16.00;89.70;;;;;;10544012;28;20055;-37
2023/10/15 13:09:19;;;;;;;5.03;1.13;;;18.00;69.80;;;;;;10543119;28;20139;-42
2023/10/15 13:14:20;;;;;;;5.85;0.70;;;17.10;92.40;;;;;;10547705;28;20052;-48
2023/10/15 13:19:22;;;;;;;5.50;0.70;;;16.80;86.80;;;;;;10545145;28;20594;-40
2023/10/15 13:24:25;;;;;;;2.10;0.77;;;18.10;70.80;;;;;;10549722;28;20066;-36
2023/10/15 13:29:28;;;;;;;1.67;0.52;;;16.80;86.50;;;;;;10539314;28;20056;-33
2023/10/15 13:34:29;;;;;;;6.18;0.90;;;18.80;86.70;;;;;;10545336;28;20039;-36
2023/10/15 13:39:32;;;;;;;3.40;0.60;;;18.80;65.40;;;;;;10538593;28;20046;-33
2023/10/15 13:44:35;;;;;;;4.97;0.60;;;18.30;68.00;;;;;;10536173;28;20477;-32
2023/10/15 13:49:37;;;;;;;4.53;1.20;;;17.10;74.70;;;;;;10533124;28;21380;-47
2023/10/15 13:54:40;;;;;;;5.15;0.68;;;18.20;74.00;;;;;;10539569;28;20153;-40
2023/10/15 13:59:42;;;;;;;4.72;0.82;;;17.80;74.70;;;;;;10539521;28;20094;-34
2023/10/15 14:04:44;;;;;;;3.05;1.35;;;19.90;76.30;;;;;;10541970;28;20074;-33
2023/10/15 14:09:47;;;;;;;3.28;0.90;;;20.10;78.90;;;;;;10538442;28;20059;-38
2023/10/15 14:14:48;;;;;;;7.70;1.35;;;20.10;77.50;;;;;;10544229;28;20132;-37
2023/10/15 14:19:51;;;;;;;7.22;2.38;;;20.60;71.60;;;;;;10538021;28;20044;-42
2023/10/15 14:24:54;;;;;;;5.75;1.10;;;21.00;67.60;;;;;;10540142;28;20051;-49
2023/10/15 14:29:56;;;;;;;4.10;0.80;;;20.90;73.60;;;;;;10539957;28;20040;-33
2023/10/15 14:34:59;;;;;;;7.05;1.17;;;19.30;70.30;;;;;;10544493;28;20065;-39
2023/10/15 14:40:03;;;;;;;9.65;0.88;;;18.70;65.00;;;;;;10548884;28;20062;-32
2023/10/15 14:45:06;;;;;;;9.55;0.98;;;18.40;83.40;;;;;;10539235;28;20040;-37
2023/10/15 14:50:10;;;;;;;3.97;1.08;;;18.50;80.80;;;;;;10548929;28;20052;-32
2023/10/15 14:55:16;;;;;;;6.60;1.15;;;19.90;71.90;;;;;;10545189;28;20054;-36
2023/10/15 15:00:18;;;;;;;3.88;0.75;;;20.10;76.20;;;;;;10542309;28;20641;-33
2023/10/15 15:05:20;;;;;;;4.72;0.70;;;20.70;72.90;;;;;;10540055;28;20040;-40
2023/10/15 15:10:23;;;;;;;4.53;0.90;;;20.50;72.70;;;;;;10531229;28;20052;-33
2023/10/15 15:15:25;;;;;;;8.63;1.00;;;21.00;72.30;;;;;;10532676;28;20051;-42
2023/10/15 15:20:28;;;;;;;5.25;0.57;;;21.50;69.80;;;;;;10538481;28;20075;-33
2023/10/15 15:25:32;;;;;;;2.25;0.70;;;21.50;69.60;;;;;;10534731;28;20063;-40
2023/10/15 15:30:34;;;;;;;4.97;0.63;;;21.60;69.30;;;;;;10547043;28;20050;-34
2023/10/15 15:35:36;;;;;;;2.88;0.60;;;21.40;70.20;;;;;;10536311;28;20136;-32
2023/10/15 15:40:41;;;;;;;3.17;1.23;;;21.80;69.00;;;;;;10542621;28;20439;-33
2023/10/15 15:45:43;;;;;;;4.93;0.70;;;20.20;64.50;;;;;;10537844;28;20067;-37
2023/10/15 15:50:45;;;;;;;2.88;0.90;;;21.20;72.20;;;;;;10533348;28;24020;-35
2023/10/15 15:55:48;;;;;;;5.15;1.67;;;20.60;75.10;;;;;;10545272;28;20108;-35
2023/10/15 16:00:50;;;;;;;2.65;1.00;;;19.00;59.90;;;;;;10536792;28;20070;-38
2023/10/15 16:06:01;;;;;;;6.30;1.10;;;20.20;78.10;;;;;;10530469;28;20125;-37
2023/10/15 16:11:04;;;;;;;3.45;0.73;;;19.60;58.40;;;;;;10536811;28;20056;-33
2023/10/15 16:16:08;;;;;;;9.50;2.25;;;18.90;53.90;;;;;;10523356;28;20177;-40
2023/10/15 16:21:10;;;;;;;3.50;0.90;;;19.70;84.50;;;;;;10541854;28;20585;-32
2023/10/15 16:26:14;;;;;;;2.70;0.63;;;18.40;81.90;;;;;;10541132;28;20688;-46
2023/10/15 16:31:15;;;;;;;3.97;1.27;;;18.00;76.90;;;;;;10545852;28;20051;-35
2023/10/15 16:36:17;;;;;;;2.65;1.10;;;18.80;88.80;;;;;;10547384;28;20136;-37
2023/10/15 16:41:20;;;;;;;8.73;1.10;;;20.20;82.30;;;;;;10546719;28;20573;-37
2023/10/15 16:46:22;;;;;;;8.23;1.45;;;19.10;56.50;;;;;;10539174;28;20047;-38
2023/10/15 16:51:24;;;;;;;4.90;1.55;;;18.90;87.90;;;;;;10544280;28;20050;-37
2023/10/15 16:56:28;;;;;;;4.23;0.87;;;19.10;89.10;;;;;;10543247;28;20189;-35
2023/10/15 17:01:29;;;;;;;3.83;1.33;;;16.00;81.20;;;;;;10540442;28;20493;-40
2023/10/15 17:06:31;;;;;;;9.87;1.60;;;16.90;96.10;;;;;;10537652;28;20043;-37
2023/10/15 17:11:34;;;;;;;3.23;1.20;;;17.00;93.70;;;;;;10551496;28;20059;-34
2023/10/15 17:16:36;;;;;;;4.50;1.65;;;18.70;70.10;;;;;;10542578;28;20079;-35
2023/10/15 17:21:38;;;;;;;4.78;1.27;;;18.90;85.40;;;;;;10533817;28;20131;-34
2023/10/15 17:26:41;;;;;;;4.00;1.17;;;20.10;80.20;;;;;;10542321;28;20050;-33
2023/10/15 17:31:43;;;;;;;4.95;1.38;;;20.80;77.00;;;;;;10541679;28;20043;-42
2023/10/15 17:36:45;;;;;;;5.15;1.13;;;21.30;73.90;;;;;;10546904;28;20120;-43
2023/10/15 17:41:48;;;;;;;5.55;0.90;;;21.50;71.70;;;;;;10539197;28;20048;-34
2023/10/15 17:46:50;;;;;;;5.13;1.73;;;21.50;72.50;;;;;;10533884;28;20047;-38
2023/10/15 17:51:52;;;;;;;3.55;0.98;;;21.40;72.60;;;;;;10539354;28;20509;-32
2023/10/15 17:56:55;;;;;;;6.20;0.80;;;21.50;72.10;;;;;;10545356;28;20052;-37
2023/10/15 18:01:58;;;;;;;3.25;0.63;;;21.60;71.60;;;;;;10543505;28;20091;-33
2023/10/15 18:07:00;;;;;;;3.15;0.95;;;20.80;74.70;;;;;;10547631;28;20051;-44
2023/10/15 18:12:04;;;;;;;6.97;1.25;;;20.40;77.00;;;;;;10544113;28;20407;-37
2023/10/15 18:17:05;;;;;;;4.40;1.08;;;21.00;70.00;;;;;;10539173;28;20039;-40
2023/10/15 18:22:07;;;;;;;8.18;2.13;;;21.50;71.30;;;;;;10542276;28;20653;-34
2023/10/15 18:27:11;;;;;;;3.17;1.00;;;21.50;70.80;;;;;;10546742;28;20147;-37
2023/10/15 18:32:12;;;;;;;4.28;0.80;;;21.50;70.70;;;;;;10533348;28;20044;-41
2023/10/15 18:37:15;;;;;;;3.40;0.90;;;21.60;70.20;;;;;;10536321;28;20510;-41
2023/10/15 18:42:18;;;;;;;;;;;21.20;70.50;;;;;;10546566;28;20079;-40
2023/10/15 18:47:19;;;;;;;2.67;0.90;;;21.50;69.80;;;;;;10530624;28;19927;-45
2023/10/15 18:52:21;;;;;;;5.68;1.10;;;21.50;69.50;;;;;;10535832;28;20105;-37
2023/10/15 18:57:26;;;;;;;5.22;0.90;;;21.50;69.10;;;;;;10533912;28;20454;-38
2023/10/15 19:02:28;;;;;;;3.22;0.80;;;20.00;51.10;;;;;;10538719;28;20047;-35
2023/10/15 19:07:30;;;;;;;3.42;1.10;;;21.00;71.20;;;;;;10533895;28;20096;-37
2023/10/15 19:12:34;;;;;;;5.47;1.50;;;21.20;70.10;;;;;;10533743;28;20465;-48
2023/10/15 19:17:36;;;;;;;6.35;2.28;;;21.30;69.90;;;;;;10536681;28;20059;-33
2023/10/15 19:22:37;;;;;;;7.15;3.25;;;20.70;61.40;;;;;;10540205;28;20602;-38
2023/10/15 19:27:43;;;;;;;7.78;4.18;;;20.30;71.00;;;;;;10542792;28;20056;-39
2023/10/15 19:32:45;;;;;;;5.82;3.63;;;19.20;75.90;;;;;;10541085;28;20847;-36
2023/10/15 19:37:50;;;;;;;6.80;3.42;;;20.50;73.20;;;;;;10538871;28;20121;-48
2023/10/15 19:42:53;;;;;;;10.13;3.97;;;20.90;70.80;;;;;;10536867;28;21756;-33
2023/10/15 19:47:55;;;;;;;6.55;3.65;;;21.00;70.40;;;;;;10539014;28;20047;-42
2023/10/15 19:53:03;;;;;;;7.70;2.50;;;21.20;69.60;;;;;;10545580;28;20058;-32
2023/10/15 19:58:06;;;;;;;5.40;2.50;;;21.30;69.20;;;;;;10539391;28;20093;-40
2023/10/15 20:03:08;;;;;;;6.65;1.92;;;21.30;69.10;;;;;;10554092;28;20721;-34
2023/10/15 20:08:11;;;;;;;8.38;2.03;;;21.30;69.10;;;;;;10550040;28;20054;-36
2023/10/15 20:13:14;;;;;;;5.85;1.50;;;21.30;69.00;;;;;;10541097;28;20051;-36
2023/10/15 20:18:17;;;;;;;8.23;2.10;;;21.20;69.10;;;;;;10550563;28;20044;-41
2023/10/15 20:23:18;;;;;;;;;;;21.20;69.10;;;;;;10545545;28;20044;-41
2023/10/15 20:28:22;;;;;;;3.63;1.48;;;21.20;69.20;;;;;;10548510;28;19920;-45
2023/10/15 20:33:24;;;;;;;4.80;1.50;;;21.20;69.10;;;;;;10547167;28;22563;-33
2023/10/15 20:38:26;;;;;;;5.15;1.50;;;21.20;69.10;;;;;;10538123;28;20048;-32
2023/10/15 20:43:29;;;;;;;5.35;1.52;;;21.20;69.20;;;;;;10548664;28;20154;-39
2023/10/15 20:48:31;;;;;;;3.92;1.35;;;21.20;69.20;;;;;;10546184;28;20067;-35
2023/10/15 20:53:33;;;;;;;6.47;1.48;;;21.20;69.20;;;;;;10545305;28;20480;-39
2023/10/15 20:58:36;;;;;;;5.63;1.65;;;21.00;69.50;;;;;;10536836;28;20043;-37
2023/10/15 21:03:38;;;;;;;5.30;1.20;;;21.10;69.40;;;;;;10549632;28;20113;-36
2023/10/15 21:08:40;;;;;;;5.90;1.50;;;21.10;69.40;;;;;;10545663;28;20135;-37
2023/10/15 21:13:43;;;;;;;8.18;1.65;;;21.10;69.20;;;;;;10551915;28;20087;-35
2023/10/15 21:18:45;;;;;;;11.10;2.17;;;21.10;69.20;;;;;;10550995;28;20079;-34
2023/10/15 21:23:46;;;;;;;7.70;1.25;;;21.10;69.20;;;;;;10549704;28;20117;-35
2023/10/15 21:28:49;;;;;;;6.10;1.40;;;21.10;69.20;;;;;;10554788;28;20128;-35
2023/10/15 21:33:51;;;;;;;5.03;1.50;;;21.10;69.30;;;;;;10551472;28;20043;-46
2023/10/15 21:38:54;;;;;;;4.20;1.10;;;21.10;69.30;;;;;;10550816;28;20104;-39
2023/10/15 21:43:58;;;;;;;7.18;1.50;;;21.10;69.30;;;;;;10539050;28;20043;-34
2023/10/15 21:49:00;;;;;;;8.40;1.27;;;21.10;69.30;;;;;;10528819;28;20512;-36
2023/10/15 21:54:02;;;;;;;6.60;1.33;;;21.10;69.30;;;;;;10552284;28;20048;-38
2023/10/15 21:59:06;;;;;;;6.13;1.20;;;21.00;69.40;;;;;;10547075;28;20616;-43
2023/10/15 22:04:07;;;;;;;7.60;1.52;;;21.10;69.30;;;;;;10546253;28;20067;-39
2023/10/15 22:09:11;;;;;;;4.43;1.17;;;21.00;69.40;;;;;;10550624;28;20051;-31
2023/10/15 22:14:14;;;;;;;3.00;1.20;;;21.00;69.40;;;;;;10549158;28;20063;-34
2023/10/15 22:19:21;;;;;;;2.70;0.85;;;21.00;69.60;;;;;;10541287;28;20128;-36
2023/10/15 22:24:23;;;;;;;4.80;0.90;;;21.00;69.50;;;;;;10545842;28;20044;-46
2023/10/15 22:29:27;;;;;;;4.53;1.27;;;21.00;69.40;;;;;;10539976;28;20203;-40
2023/10/15 22:34:29;;;;;;;3.13;1.13;;;21.00;69.50;;;;;;10546959;28;20048;-33
2023/10/15 22:39:31;;;;;;;7.60;1.95;;;21.00;69.50;;;;;;10547847;28;20430;-34
2023/10/15 22:44:35;;;;;;;3.20;1.40;;;21.00;69.70;;;;;;10544775;28;20048;-34
2023/10/15 22:49:37;;;;;;;4.90;1.15;;;20.90;69.60;;;;;;10542915;28;20058;-35
2023/10/15 22:54:39;;;;;;;4.88;1.30;;;20.90;69.80;;;;;;10552473;28;20098;-40
2023/10/15 22:59:45;;;;;;;4.13;0.90;;;20.90;69.80;;;;;;10545928;28;20052;-33
2023/10/15 23:04:47;;;;;;;2.08;0.90;;;20.90;69.90;;;;;;10553792;28;20044;-34
2023/10/15 23:09:49;;;;;;;2.28;0.68;;;20.90;69.90;;;;;;10545989;28;20066;-42
2023/10/15 23:14:52;;;;;;;4.10;0.80;;;20.80;69.80;;;;;;10544840;28;20063;-36
2023/10/15 23:19:59;;;;;;;2.80;0.90;;;20.90;70.00;;;;;;10546055;28;20512;-35
2023/10/15 23:25:01;;;;;;;2.72;1.13;;;20.80;70.00;;;;;;10539457;28;20044;-34
2023/10/15 23:30:06;;;;;;;2.45;1.00;;;20.80;70.00;;;;;;10546815;28;20063;-39
2023/10/15 23:35:09;;;;;;;2.75;0.93;;;20.80;70.20;;;;;;10551835;28;20052;-35
2023/10/15 23:40:13;;;;;;;1.40;0.88;;;20.80;70.20;;;;;;10548903;28;20108;-45
2023/10/15 23:45:25;;;;;;;1.20;0.70;;;20.80;70.20;;;;;;10553078;28;20082;-36
2023/10/15 23:50:30;;;;;;;3.00;0.70;;;20.80;70.00;;;;;;10557949;28;20050;-34
2023/10/15 23:55:38;;;;;;;1.27;0.73;;;20.80;70.20;;;;;;10548326;28;20626;-33
